Airport ID:KN38
Update Time (UTC):08/03/2021 19:47
Wind Speed (Knots):6
Wind Direction (Magnetic):240
Temperature (°C):4
Dew Point (°C):-11
Humidity (%):34
Altimeter (inHg):30.31
Density Altitude (Feet):
Visibility:10+
Clouds (Hundreds of feet):BKN037 BKN044 OVC075
Present Weather:
METAR:METAR KN38 081945Z AUTO 24007KT 10SM FEW034 BKN039 OVC075 04/M11 A3031 RMK AO2

The data displayed is for advisory purposes only and is not to be used for flight planning or operations.